createdAt,value
2018-12-22T00:00:11.014Z,32.80
2018-12-22T00:04:56.485Z,30.47
2018-12-22T00:09:42.213Z,33.37
2018-12-22T00:14:27.540Z,38.37
2018-12-22T00:19:11.817Z,43.03
2018-12-22T00:23:59.425Z,32.97
2018-12-22T00:28:44.675Z,34.87
2018-12-22T00:33:29.176Z,36.07
2018-12-22T00:38:14.731Z,46.00
2018-12-22T00:42:58.966Z,44.30
2018-12-22T00:47:44.984Z,40.80
2018-12-22T00:52:30.729Z,44.20
2018-12-22T00:57:17.670Z,48.20
2018-12-22T01:02:01.987Z,57.70
2018-12-22T01:06:48.046Z,45.60
2018-12-22T01:11:33.248Z,41.73
2018-12-22T01:16:18.229Z,44.57
2018-12-22T01:21:03.897Z,43.47
2018-12-22T01:25:51.881Z,41.23
2018-12-22T01:30:37.118Z,33.13
2018-12-22T01:35:23.005Z,34.60
2018-12-22T01:40:08.416Z,43.20
2018-12-22T01:44:52.624Z,29.17
2018-12-22T01:49:37.184Z,21.07
2018-12-22T01:54:23.079Z,22.37
2018-12-22T01:59:07.386Z,24.80
2018-12-22T02:03:52.897Z,22.17
2018-12-22T02:08:38.804Z,22.50
2018-12-22T02:13:23.951Z,20.10
2018-12-22T02:18:08.035Z,24.10
2018-12-22T02:22:53.859Z,27.97
2018-12-22T02:27:39.577Z,21.13
2018-12-22T02:32:25.755Z,17.03
2018-12-22T02:37:10.792Z,20.43
2018-12-22T02:41:56.465Z,21.73
2018-12-22T02:46:41.747Z,20.37
2018-12-22T02:51:26.947Z,21.17
2018-12-22T02:56:12.510Z,17.03
2018-12-22T03:00:57.830Z,24.03
2018-12-22T03:05:44.628Z,57.53
2018-12-22T03:10:29.893Z,54.07
2018-12-22T03:15:15.035Z,40.67
2018-12-22T03:20:00.685Z,28.53
2018-12-22T03:24:46.160Z,23.63
2018-12-22T03:29:31.751Z,22.20
2018-12-22T03:34:17.762Z,29.57
2018-12-22T03:39:02.267Z,27.83
2018-12-22T03:43:48.679Z,23.47
2018-12-22T03:48:32.984Z,15.53
2018-12-22T03:53:19.836Z,18.23
2018-12-22T03:58:04.247Z,16.73
2018-12-22T04:02:50.479Z,20.17
2018-12-22T04:07:34.923Z,14.03
2018-12-22T04:12:20.468Z,12.67
2018-12-22T04:17:05.808Z,11.57
2018-12-22T04:21:51.104Z,12.33
2018-12-22T04:26:40.036Z,15.10
2018-12-22T04:31:25.758Z,24.57
2018-12-22T04:36:14.211Z,17.13
2018-12-22T04:40:59.447Z,19.93
2018-12-22T04:45:45.691Z,21.50
2018-12-22T04:50:29.984Z,18.40
2018-12-22T04:55:18.310Z,21.10
2018-12-22T05:00:04.229Z,21.80
2018-12-22T05:04:52.229Z,25.53
2018-12-22T05:09:37.834Z,20.67
2018-12-22T05:14:22.657Z,18.50
2018-12-22T05:19:07.883Z,24.50
2018-12-22T05:23:52.091Z,26.97
2018-12-22T05:28:37.640Z,27.00
2018-12-22T05:33:26.001Z,22.60
2018-12-22T05:38:10.306Z,27.90
2018-12-22T05:42:56.778Z,27.53
2018-12-22T05:47:43.681Z,40.53
2018-12-22T05:52:32.203Z,59.50
2018-12-22T05:57:16.722Z,48.20
2018-12-22T06:02:01.261Z,29.27
2018-12-22T06:06:50.281Z,24.67
2018-12-22T06:11:37.168Z,22.47
2018-12-22T06:16:22.931Z,22.03
2018-12-22T06:21:09.528Z,22.93
2018-12-22T06:25:54.753Z,34.13
2018-12-22T06:30:39.992Z,65.37
2018-12-22T06:35:25.437Z,59.73
2018-12-22T06:40:09.601Z,54.73
2018-12-22T06:44:55.201Z,81.50
2018-12-22T06:49:39.452Z,92.03
2018-12-22T06:54:25.163Z,122.23
2018-12-22T06:59:09.440Z,95.60
2018-12-22T07:03:55.727Z,99.00
2018-12-22T07:08:41.393Z,79.30
2018-12-22T07:13:27.415Z,82.43
2018-12-22T07:18:13.315Z,88.23
2018-12-22T07:23:00.611Z,92.67
2018-12-22T07:27:45.821Z,89.67
2018-12-22T07:32:30.941Z,59.97
2018-12-22T07:37:17.450Z,93.17
2018-12-22T07:42:01.790Z,116.83
2018-12-22T07:46:46.429Z,72.37
2018-12-22T07:51:36.255Z,63.80
2018-12-22T07:56:22.010Z,63.63
2018-12-22T08:01:08.457Z,52.87
2018-12-22T08:05:52.656Z,88.70
2018-12-22T08:10:37.082Z,98.53
2018-12-22T08:15:24.024Z,69.13
2018-12-22T08:20:14.432Z,54.87
2018-12-22T08:25:02.069Z,108.33
2018-12-22T08:29:47.775Z,47.30
2018-12-22T08:34:34.002Z,35.07
2018-12-22T08:39:19.056Z,28.17
2018-12-22T08:44:04.443Z,28.03
2018-12-22T08:48:49.114Z,30.93
2018-12-22T08:53:35.593Z,33.70
2018-12-22T08:58:26.444Z,36.97
2018-12-22T09:03:11.264Z,57.57
2018-12-22T09:07:55.808Z,48.43
2018-12-22T09:12:45.479Z,46.30
2018-12-22T09:17:30.140Z,65.50
2018-12-22T09:22:16.316Z,57.43
2018-12-22T09:27:00.807Z,67.27
2018-12-22T09:31:45.053Z,52.83
2018-12-22T09:36:35.081Z,50.23
2018-12-22T09:41:20.730Z,64.93
2018-12-22T09:46:06.643Z,71.80
2018-12-22T09:50:52.308Z,113.07
2018-12-22T09:55:38.037Z,95.73
2018-12-22T10:00:24.091Z,68.70
2018-12-22T10:05:10.115Z,75.70
2018-12-22T10:09:54.875Z,67.73
2018-12-22T10:14:41.512Z,73.17
2018-12-22T10:19:25.800Z,72.83
2018-12-22T10:24:10.992Z,79.07
2018-12-22T10:28:56.553Z,72.20
2018-12-22T10:33:41.359Z,85.10
2018-12-22T10:38:26.954Z,61.20
2018-12-22T10:43:11.542Z,53.67
2018-12-22T10:47:56.741Z,72.83
2018-12-22T10:52:42.831Z,51.77
2018-12-22T10:57:29.316Z,41.87
2018-12-22T11:02:18.674Z,44.57
2018-12-22T11:07:08.124Z,45.13
2018-12-22T11:11:53.749Z,42.70
2018-12-22T11:16:39.825Z,39.77
2018-12-22T11:21:25.344Z,37.03
2018-12-22T11:26:10.448Z,50.13
2018-12-22T11:30:56.724Z,41.30
2018-12-22T11:35:46.894Z,50.90
2018-12-22T11:40:32.437Z,45.43
2018-12-22T11:45:17.869Z,38.20
2018-12-22T11:50:03.207Z,39.77
2018-12-22T11:54:47.721Z,36.57
2018-12-22T11:59:32.704Z,34.00
2018-12-22T12:04:19.016Z,33.47
2018-12-22T12:09:04.210Z,32.33
2018-12-22T12:13:48.709Z,43.23
2018-12-22T12:19:38.732Z,38.30
2018-12-22T12:24:24.960Z,35.87
2018-12-22T12:29:10.144Z,26.93
2018-12-22T12:33:55.645Z,30.73
2018-12-22T12:38:41.634Z,32.50
2018-12-22T12:43:26.634Z,34.17
2018-12-22T12:48:18.218Z,38.70
2018-12-22T12:53:09.572Z,38.93
2018-12-22T12:57:49.910Z,51.43
2018-12-22T13:02:34.298Z,39.80
2018-12-22T13:07:18.630Z,41.67
2018-12-22T13:12:12.309Z,67.03
2018-12-22T13:16:56.748Z,59.47
2018-12-22T13:21:45.260Z,97.67
2018-12-22T13:26:36.816Z,76.57
2018-12-22T13:31:20.651Z,49.10
2018-12-22T13:36:05.268Z,36.07
2018-12-22T13:40:51.133Z,162.63
2018-12-22T13:45:38.159Z,43.67
2018-12-22T13:50:23.674Z,40.90
2018-12-22T13:55:09.726Z,37.70
2018-12-22T13:59:55.976Z,31.47
2018-12-22T14:04:42.643Z,39.40
2018-12-22T14:09:28.316Z,53.07
2018-12-22T14:14:19.275Z,58.80
2018-12-22T14:19:07.730Z,64.37
2018-12-22T14:24:10.264Z,61.17
2018-12-22T14:28:54.964Z,65.73
2018-12-22T14:33:42.213Z,115.03
2018-12-22T14:38:26.651Z,137.67
2018-12-22T14:43:13.675Z,71.00
2018-12-22T14:47:59.281Z,59.33
2018-12-22T14:52:54.005Z,53.43
2018-12-22T14:57:47.077Z,51.40
2018-12-22T15:02:35.378Z,87.37
2018-12-22T15:07:21.153Z,84.83
2018-12-22T15:12:07.485Z,87.33
2018-12-22T15:16:52.980Z,58.10
2018-12-22T15:21:37.916Z,41.43
2018-12-22T15:26:23.805Z,25.30
2018-12-22T15:31:08.075Z,28.93
2018-12-22T15:35:53.180Z,28.97
2018-12-22T15:40:41.273Z,56.93
2018-12-22T15:45:25.527Z,46.10
2018-12-22T15:50:14.062Z,33.10
2018-12-22T15:54:59.310Z,28.50
2018-12-22T15:59:43.645Z,27.63
2018-12-22T16:04:29.469Z,54.97
2018-12-22T16:09:14.719Z,53.40
2018-12-22T16:14:00.906Z,49.27
2018-12-22T16:18:46.344Z,45.33
2018-12-22T16:23:30.715Z,60.03
2018-12-22T16:28:26.026Z,47.23
2018-12-22T16:33:10.641Z,49.23
2018-12-22T16:37:55.800Z,38.13
2018-12-22T16:42:40.509Z,35.67
2018-12-22T16:47:25.548Z,32.57
2018-12-22T16:52:11.219Z,34.27
2018-12-22T16:56:55.632Z,30.87
2018-12-22T17:01:56.697Z,39.77
2018-12-22T17:06:42.051Z,42.30
2018-12-22T17:11:29.160Z,35.50
2018-12-22T17:16:14.449Z,41.83
2018-12-22T17:21:23.411Z,83.90
2018-12-22T17:26:09.349Z,60.27
2018-12-22T17:30:54.590Z,51.47
2018-12-22T17:35:42.353Z,77.40
2018-12-22T17:40:34.140Z,53.40
2018-12-22T17:45:19.085Z,50.17
2018-12-22T17:50:04.460Z,47.70
2018-12-22T17:54:50.425Z,39.83
2018-12-22T17:59:36.257Z,37.47
2018-12-22T18:04:22.116Z,38.40
2018-12-22T18:09:08.182Z,44.03
2018-12-22T18:13:52.529Z,46.97
2018-12-22T18:18:38.242Z,42.33
2018-12-22T18:23:23.671Z,31.60
2018-12-22T18:28:09.219Z,28.67
2018-12-22T18:32:54.817Z,54.73
2018-12-22T18:37:39.704Z,35.13
2018-12-22T18:42:26.218Z,30.93
2018-12-22T18:47:10.634Z,36.07
2018-12-22T18:51:55.679Z,30.33
2018-12-22T18:56:40.976Z,52.77
2018-12-22T19:01:25.908Z,47.50
2018-12-22T19:06:11.069Z,64.50
2018-12-22T19:11:00.890Z,43.17
2018-12-22T19:15:46.840Z,52.90
2018-12-22T19:20:41.762Z,74.63
2018-12-22T19:25:26.933Z,79.80
2018-12-22T19:30:13.367Z,86.20
2018-12-22T19:34:59.208Z,71.67
2018-12-22T19:39:45.033Z,55.97
2018-12-22T19:44:32.210Z,51.80
2018-12-22T19:49:18.585Z,50.43
2018-12-22T19:54:02.936Z,56.67
2018-12-22T19:58:47.849Z,55.53
2018-12-22T20:03:33.548Z,60.87
2018-12-22T20:08:18.322Z,65.37
2018-12-22T20:13:04.273Z,50.17
2018-12-22T20:17:48.650Z,50.03
2018-12-22T20:22:36.349Z,57.37
2018-12-22T20:27:21.625Z,47.57
2018-12-22T20:32:06.236Z,36.20
2018-12-22T20:36:52.163Z,39.03
2018-12-22T20:41:37.357Z,35.40
2018-12-22T20:46:23.318Z,46.27
2018-12-22T20:51:07.762Z,33.63
2018-12-22T20:55:57.022Z,43.00
2018-12-22T21:00:45.179Z,36.67
2018-12-22T21:05:34.110Z,37.97
2018-12-22T21:10:19.652Z,29.97
2018-12-22T21:15:07.273Z,25.57
2018-12-22T21:19:52.808Z,30.50
2018-12-22T21:24:38.156Z,27.07
2018-12-22T21:29:23.088Z,32.13
2018-12-22T21:34:12.885Z,29.33
2018-12-22T21:38:57.105Z,23.97
2018-12-22T21:43:44.131Z,20.77
2018-12-22T21:48:29.134Z,18.73
2018-12-22T21:53:15.128Z,14.63
2018-12-22T21:57:59.454Z,16.53
2018-12-22T22:02:46.087Z,13.97
2018-12-22T22:07:31.326Z,14.60
2018-12-22T22:12:16.899Z,11.83
2018-12-22T22:17:07.958Z,14.20
2018-12-22T22:21:54.258Z,15.30
2018-12-22T22:26:38.864Z,20.93
2018-12-22T22:31:24.988Z,17.63
2018-12-22T22:36:10.299Z,15.03
2018-12-22T22:40:56.029Z,16.07
2018-12-22T22:45:40.367Z,16.27
2018-12-22T22:50:26.593Z,14.83
2018-12-22T22:55:10.972Z,18.57
2018-12-22T22:59:55.214Z,15.00
2018-12-22T23:04:40.906Z,18.03
2018-12-22T23:09:27.524Z,13.67
2018-12-22T23:14:12.782Z,20.63
2018-12-22T23:18:58.538Z,17.23
2018-12-22T23:23:43.897Z,15.13
2018-12-22T23:28:29.404Z,28.60
2018-12-22T23:33:15.846Z,11.57
2018-12-22T23:38:00.764Z,14.60
2018-12-22T23:42:46.501Z,24.97
2018-12-22T23:47:31.476Z,22.70
2018-12-22T23:52:17.877Z,10.23
2018-12-22T23:57:02.241Z,8.30
